createdAt,value
2022-08-25T00:01:40.425Z,99.90
2022-08-25T00:04:10.910Z,99.90
2022-08-25T00:06:40.167Z,99.90
2022-08-25T00:09:08.357Z,99.90
2022-08-25T00:11:36.888Z,99.90
2022-08-25T00:14:11.541Z,99.90
2022-08-25T00:16:38.410Z,99.90
2022-08-25T00:19:09.426Z,99.90
2022-08-25T00:21:36.251Z,99.90
2022-08-25T00:24:03.371Z,99.90
2022-08-25T00:26:30.574Z,99.90
2022-08-25T00:29:01.894Z,99.90
2022-08-25T00:31:37.649Z,99.90
2022-08-25T00:34:09.578Z,99.90
2022-08-25T00:36:36.494Z,99.90
2022-08-25T00:39:04.785Z,99.90
2022-08-25T00:41:31.614Z,99.90
2022-08-25T00:44:05.515Z,99.90
2022-08-25T00:46:37.575Z,99.90
2022-08-25T00:49:20.864Z,99.90
2022-08-25T00:52:00.510Z,99.90
2022-08-25T00:54:34.894Z,99.90
2022-08-25T00:57:03.255Z,99.90
2022-08-25T00:59:30.456Z,99.90
2022-08-25T01:01:58.463Z,99.90
2022-08-25T01:04:25.726Z,99.90
2022-08-25T01:06:53.586Z,99.90
2022-08-25T01:09:20.811Z,99.90
2022-08-25T01:11:48.241Z,99.90
2022-08-25T01:14:18.903Z,99.90
2022-08-25T01:16:46.314Z,99.90
2022-08-25T01:19:17.681Z,99.90
2022-08-25T01:21:49.076Z,99.90
2022-08-25T01:24:36.565Z,99.90
2022-08-25T01:27:04.312Z,99.90
2022-08-25T01:29:31.724Z,99.90
2022-08-25T01:32:06.109Z,99.90
2022-08-25T01:34:35.733Z,99.90
2022-08-25T01:37:03.209Z,99.90
2022-08-25T01:39:33.898Z,99.90
2022-08-25T01:42:06.606Z,99.90
2022-08-25T01:44:35.946Z,99.90
2022-08-25T01:47:04.521Z,99.90
2022-08-25T01:49:31.452Z,99.90
2022-08-25T01:52:05.690Z,99.90
2022-08-25T01:54:32.589Z,99.90
2022-08-25T01:56:59.838Z,99.90
2022-08-25T01:59:27.503Z,99.90
2022-08-25T02:02:00.206Z,99.90
2022-08-25T02:04:32.241Z,99.90
2022-08-25T02:07:00.813Z,99.90
2022-08-25T02:09:27.998Z,99.90
2022-08-25T02:11:56.695Z,99.90
2022-08-25T02:14:23.842Z,99.90
2022-08-25T02:16:52.537Z,99.90
2022-08-25T02:19:21.238Z,99.90
2022-08-25T02:21:48.648Z,99.90
2022-08-25T02:24:15.564Z,99.90
2022-08-25T02:26:42.724Z,99.90
2022-08-25T02:29:10.268Z,99.90
2022-08-25T02:31:38.214Z,99.90
2022-08-25T02:34:06.581Z,99.90
2022-08-25T02:36:33.729Z,99.90
2022-08-25T02:39:01.397Z,99.90
2022-08-25T02:41:30.891Z,99.90
2022-08-25T02:43:59.948Z,99.90
2022-08-25T02:46:26.829Z,99.90
2022-08-25T02:48:54.186Z,99.90
2022-08-25T02:51:23.702Z,99.90
2022-08-25T02:53:50.869Z,99.90
2022-08-25T02:56:19.825Z,99.90
2022-08-25T02:58:47.269Z,99.90
2022-08-25T03:01:15.219Z,99.90
2022-08-25T03:03:44.367Z,99.90
2022-08-25T03:06:14.173Z,99.90
2022-08-25T03:08:42.793Z,99.90
2022-08-25T03:11:10.520Z,99.90
2022-08-25T03:13:37.829Z,99.90
2022-08-25T03:16:06.102Z,99.90
2022-08-25T03:18:41.136Z,99.90
2022-08-25T03:21:11.372Z,99.90
2022-08-25T03:23:39.768Z,99.90
2022-08-25T03:26:26.095Z,99.90
2022-08-25T03:28:55.426Z,99.90
2022-08-25T03:31:23.418Z,99.90
2022-08-25T03:33:50.259Z,99.90
2022-08-25T03:36:17.296Z,99.90
2022-08-25T03:38:44.138Z,99.90
2022-08-25T03:41:24.356Z,99.90
2022-08-25T03:43:55.315Z,99.90
2022-08-25T03:46:36.944Z,99.90
2022-08-25T03:49:07.157Z,99.90
2022-08-25T03:51:37.810Z,99.90
2022-08-25T03:54:05.359Z,99.90
2022-08-25T03:56:32.373Z,99.90
2022-08-25T03:58:59.443Z,99.90
2022-08-25T04:01:26.559Z,99.90
2022-08-25T04:03:53.947Z,99.90
2022-08-25T04:06:21.685Z,99.90
2022-08-25T04:08:48.835Z,99.90
2022-08-25T04:11:20.900Z,99.90
2022-08-25T04:13:48.871Z,99.90
2022-08-25T04:16:21.256Z,99.90
2022-08-25T04:18:50.913Z,99.90
2022-08-25T04:21:19.618Z,99.90
2022-08-25T04:23:48.886Z,99.90
2022-08-25T04:26:19.634Z,99.90
2022-08-25T04:28:47.570Z,99.90
2022-08-25T04:31:16.111Z,99.90
2022-08-25T04:33:43.184Z,99.90
2022-08-25T04:36:14.336Z,99.90
2022-08-25T04:38:42.118Z,99.90
2022-08-25T04:41:11.438Z,99.90
2022-08-25T04:43:39.960Z,99.90
2022-08-25T04:46:13.095Z,99.90
2022-08-25T04:48:40.999Z,99.90
2022-08-25T04:51:13.232Z,99.90
2022-08-25T04:53:40.853Z,99.90
2022-08-25T04:56:13.459Z,99.90
2022-08-25T04:58:41.612Z,99.90
2022-08-25T05:01:15.791Z,99.90
2022-08-25T05:03:43.587Z,99.90
2022-08-25T05:06:15.277Z,99.90
2022-08-25T05:08:42.970Z,99.90
2022-08-25T05:11:14.828Z,99.90
2022-08-25T05:13:44.074Z,99.90
2022-08-25T05:16:18.980Z,99.90
2022-08-25T05:18:45.861Z,99.90
2022-08-25T05:21:18.725Z,99.90
2022-08-25T05:23:47.491Z,99.90
2022-08-25T05:26:20.450Z,99.90
2022-08-25T05:28:51.612Z,99.90
2022-08-25T05:31:19.921Z,99.90
2022-08-25T05:33:47.193Z,99.90
2022-08-25T05:36:14.814Z,99.90
2022-08-25T05:38:42.552Z,99.90
2022-08-25T05:41:16.264Z,99.90
2022-08-25T05:43:45.156Z,99.90
2022-08-25T05:46:13.036Z,99.90
2022-08-25T05:48:39.901Z,99.90
2022-08-25T05:51:10.085Z,99.90
2022-08-25T05:53:39.195Z,99.90
2022-08-25T05:56:06.237Z,99.90
2022-08-25T05:58:33.264Z,99.90
2022-08-25T06:01:23.469Z,99.90
2022-08-25T06:03:53.282Z,99.90
2022-08-25T06:06:22.082Z,99.90
2022-08-25T06:08:49.098Z,99.90
2022-08-25T06:11:16.475Z,99.90
2022-08-25T06:13:43.420Z,99.90
2022-08-25T06:16:10.320Z,99.90
2022-08-25T06:18:37.202Z,99.90
2022-08-25T06:21:09.192Z,99.90
2022-08-25T06:23:38.181Z,99.90
2022-08-25T06:26:05.637Z,99.90
2022-08-25T06:28:32.484Z,99.90
2022-08-25T06:31:00.945Z,99.90
2022-08-25T06:33:28.063Z,99.90
2022-08-25T06:35:56.203Z,99.90
2022-08-25T06:38:23.983Z,99.90
2022-08-25T06:40:52.026Z,99.90
2022-08-25T06:43:22.829Z,99.90
2022-08-25T06:45:49.665Z,99.90
2022-08-25T06:48:16.745Z,99.90
2022-08-25T06:50:44.686Z,99.90
2022-08-25T06:53:11.968Z,99.90
2022-08-25T06:55:39.317Z,99.90
2022-08-25T06:58:06.530Z,99.90
2022-08-25T07:00:37.525Z,99.90
2022-08-25T07:03:04.994Z,99.90
2022-08-25T07:05:43.526Z,99.90
2022-08-25T07:08:11.962Z,99.90
2022-08-25T07:10:39.085Z,99.90
2022-08-25T07:13:05.896Z,99.90
2022-08-25T07:15:32.690Z,99.90
2022-08-25T07:17:59.467Z,99.90
2022-08-25T07:22:58.164Z,99.90
2022-08-25T07:25:25.105Z,99.90
2022-08-25T07:27:53.860Z,99.90
2022-08-25T07:30:23.981Z,99.90
2022-08-25T07:32:52.022Z,99.90
2022-08-25T07:35:26.332Z,99.90
2022-08-25T07:37:58.893Z,99.90
2022-08-25T07:40:31.948Z,99.90
2022-08-25T07:43:01.433Z,99.90
2022-08-25T07:45:30.896Z,99.90
2022-08-25T07:47:58.525Z,99.90
2022-08-25T07:50:26.351Z,99.90
2022-08-25T07:52:55.022Z,99.90
2022-08-25T07:55:23.527Z,99.90
2022-08-25T07:57:55.416Z,99.90
2022-08-25T08:00:24.398Z,99.90
2022-08-25T08:02:51.600Z,99.90
2022-08-25T08:05:18.422Z,99.90
2022-08-25T08:07:45.182Z,99.90
2022-08-25T08:10:47.861Z,99.90
2022-08-25T08:13:02.021Z,99.90
2022-08-25T08:15:29.963Z,99.90
2022-08-25T08:17:58.671Z,99.90
2022-08-25T08:20:26.448Z,99.90
2022-08-25T08:22:53.214Z,99.90
2022-08-25T08:25:21.362Z,99.90
2022-08-25T08:27:54.968Z,99.90
2022-08-25T08:30:25.863Z,99.90
2022-08-25T08:33:11.825Z,99.90
2022-08-25T08:35:40.417Z,99.90
2022-08-25T08:38:14.781Z,99.90
2022-08-25T08:41:54.317Z,99.90
2022-08-25T08:44:41.334Z,99.90
2022-08-25T08:47:19.816Z,99.90
2022-08-25T08:50:24.943Z,99.90
2022-08-25T08:53:25.834Z,99.90
2022-08-25T08:55:58.199Z,99.90
2022-08-25T08:58:51.108Z,99.90
2022-08-25T09:01:34.945Z,99.90
2022-08-25T09:04:24.456Z,99.90
2022-08-25T09:06:51.733Z,99.90
2022-08-25T09:09:40.160Z,99.90
2022-08-25T09:12:14.604Z,99.90
2022-08-25T09:14:56.789Z,99.90
2022-08-25T09:17:54.503Z,99.90
2022-08-25T09:20:43.399Z,99.90
2022-08-25T09:23:25.289Z,99.90
2022-08-25T09:26:19.737Z,99.90
2022-08-25T09:28:51.702Z,99.90
2022-08-25T09:31:36.370Z,99.90
2022-08-25T09:34:07.725Z,99.90
2022-08-25T09:36:37.753Z,99.90
2022-08-25T09:39:07.860Z,99.90
2022-08-25T09:41:45.757Z,99.90
2022-08-25T09:44:31.615Z,99.90
2022-08-25T09:47:03.924Z,99.90
2022-08-25T09:49:35.458Z,99.90
2022-08-25T09:52:22.758Z,99.90
2022-08-25T09:54:53.973Z,99.90
2022-08-25T09:57:43.376Z,99.90
2022-08-25T10:00:19.325Z,99.90
2022-08-25T10:03:05.842Z,99.90
2022-08-25T10:05:36.556Z,99.90
2022-08-25T10:08:14.713Z,99.90
2022-08-25T10:10:54.912Z,99.90
2022-08-25T10:13:32.146Z,99.90
2022-08-25T10:16:20.011Z,99.90
2022-08-25T10:19:02.692Z,99.90
2022-08-25T10:21:29.518Z,99.90
2022-08-25T10:23:56.385Z,99.90
2022-08-25T10:26:47.995Z,99.90
2022-08-25T10:29:15.181Z,99.90
2022-08-25T10:32:05.612Z,99.90
2022-08-25T10:34:51.431Z,99.90
2022-08-25T10:37:26.531Z,99.90
2022-08-25T10:40:25.408Z,99.90
2022-08-25T10:43:28.078Z,99.90
2022-08-25T10:46:15.331Z,99.90
2022-08-25T10:48:48.143Z,99.90
2022-08-25T10:51:25.257Z,99.90
2022-08-25T10:54:25.293Z,99.90
2022-08-25T10:57:07.114Z,99.90
2022-08-25T11:00:00.173Z,99.90
2022-08-25T11:02:48.795Z,99.90
2022-08-25T11:05:32.101Z,99.90
2022-08-25T11:08:29.853Z,99.90
2022-08-25T11:11:14.524Z,99.90
2022-08-25T11:13:50.564Z,99.90
2022-08-25T11:16:25.736Z,99.90
2022-08-25T11:19:06.987Z,99.90
2022-08-25T11:21:54.068Z,99.90
2022-08-25T11:24:36.265Z,99.90
2022-08-25T11:27:06.520Z,99.90
2022-08-25T11:29:36.771Z,99.90
2022-08-25T11:32:04.596Z,99.90
2022-08-25T11:34:35.173Z,99.90
2022-08-25T11:37:15.327Z,99.90
2022-08-25T11:39:59.053Z,99.90
2022-08-25T11:42:45.539Z,99.90
2022-08-25T11:45:34.167Z,99.90
2022-08-25T11:48:28.138Z,99.90
2022-08-25T11:51:27.394Z,99.90
2022-08-25T11:54:16.413Z,99.90
2022-08-25T11:56:50.830Z,99.90
2022-08-25T11:59:49.736Z,99.90
2022-08-25T12:02:37.601Z,99.90
2022-08-25T12:05:22.050Z,99.90
2022-08-25T12:08:13.336Z,99.90
2022-08-25T12:11:11.098Z,99.90
2022-08-25T12:13:50.940Z,99.70
2022-08-25T12:16:36.272Z,99.90
2022-08-25T12:19:34.334Z,99.90
2022-08-25T12:22:04.237Z,99.80
2022-08-25T12:24:48.140Z,99.70
2022-08-25T12:27:40.125Z,99.60
2022-08-25T12:30:29.085Z,99.20
2022-08-25T12:33:10.514Z,99.10
2022-08-25T12:35:59.283Z,99.20
2022-08-25T12:38:42.480Z,99.40
2022-08-25T12:41:24.998Z,99.20
2022-08-25T12:43:54.456Z,98.80
2022-08-25T12:46:21.472Z,99.00
2022-08-25T12:49:02.371Z,98.40
2022-08-25T12:51:54.179Z,98.30
2022-08-25T12:54:44.074Z,97.90
2022-08-25T12:57:25.076Z,98.20
2022-08-25T12:59:59.465Z,98.20
2022-08-25T13:02:49.651Z,98.30
2022-08-25T13:05:22.274Z,98.30
2022-08-25T13:07:56.638Z,97.80
2022-08-25T13:10:44.857Z,97.70
2022-08-25T13:13:17.545Z,97.60
2022-08-25T13:15:48.727Z,97.60
2022-08-25T13:18:32.551Z,97.50
2022-08-25T13:21:07.210Z,97.60
2022-08-25T13:23:40.902Z,97.90
2022-08-25T13:26:09.303Z,97.80
2022-08-25T13:28:42.480Z,97.80
2022-08-25T13:31:22.106Z,97.50
2022-08-25T13:33:59.315Z,97.40
2022-08-25T13:36:54.125Z,97.60
2022-08-25T13:39:54.994Z,97.40
2022-08-25T13:42:17.016Z,97.30
2022-08-25T13:44:53.794Z,97.10
2022-08-25T13:47:43.873Z,97.00
2022-08-25T13:50:15.584Z,97.00
2022-08-25T13:52:53.452Z,97.00
2022-08-25T13:55:38.147Z,96.80
2022-08-25T13:58:44.699Z,96.70
2022-08-25T14:01:49.453Z,96.60
2022-08-25T14:04:24.946Z,97.10
2022-08-25T14:07:12.830Z,96.70
2022-08-25T14:09:52.458Z,96.80
2022-08-25T14:12:33.642Z,97.00
2022-08-25T14:15:25.917Z,96.90
2022-08-25T14:18:07.693Z,97.10
2022-08-25T14:20:36.368Z,97.00
2022-08-25T14:23:18.875Z,97.00
2022-08-25T14:25:47.210Z,97.10
2022-08-25T14:28:17.856Z,96.70
2022-08-25T14:31:09.086Z,96.70
2022-08-25T14:34:04.892Z,96.60
2022-08-25T14:36:34.385Z,96.40
2022-08-25T14:39:05.900Z,96.50
2022-08-25T14:41:37.507Z,96.40
2022-08-25T14:44:05.610Z,96.40
2022-08-25T14:46:36.513Z,96.30
2022-08-25T14:49:06.155Z,96.50
2022-08-25T14:51:34.548Z,96.20
2022-08-25T14:54:07.323Z,96.20
2022-08-25T14:56:35.933Z,96.30
2022-08-25T14:59:03.353Z,96.20
2022-08-25T15:01:31.745Z,96.50
2022-08-25T15:04:04.937Z,96.20
2022-08-25T15:06:33.507Z,96.00
2022-08-25T15:09:11.558Z,96.00
2022-08-25T15:11:58.149Z,96.30
2022-08-25T15:14:28.888Z,96.50
2022-08-25T15:17:00.425Z,96.80
2022-08-25T15:19:28.399Z,97.00
2022-08-25T15:21:58.094Z,96.60
2022-08-25T15:24:27.530Z,97.10
2022-08-25T15:26:59.584Z,97.10
2022-08-25T15:29:30.100Z,97.00
2022-08-25T15:31:58.714Z,96.80
2022-08-25T15:34:25.924Z,96.80
2022-08-25T15:36:52.737Z,97.00
2022-08-25T15:39:19.630Z,97.10
2022-08-25T15:41:52.202Z,97.30
2022-08-25T15:44:19.966Z,97.00
2022-08-25T15:46:49.603Z,97.00
2022-08-25T15:49:20.906Z,97.20
2022-08-25T15:51:52.293Z,97.30
2022-08-25T15:54:20.118Z,97.10
2022-08-25T15:56:47.139Z,97.20
2022-08-25T15:59:14.132Z,97.00
2022-08-25T16:01:41.462Z,96.80
2022-08-25T16:04:08.338Z,96.80
2022-08-25T16:06:35.251Z,96.80
2022-08-25T16:09:03.586Z,97.00
2022-08-25T16:11:34.865Z,97.20
2022-08-25T16:14:02.302Z,96.90
2022-08-25T16:16:30.903Z,97.00
2022-08-25T16:18:59.609Z,97.10
2022-08-25T16:21:31.559Z,97.30
2022-08-25T16:24:05.461Z,97.10
2022-08-25T16:26:36.402Z,97.20
2022-08-25T16:29:06.485Z,97.30
2022-08-25T16:31:33.564Z,97.20
2022-08-25T16:34:01.517Z,97.00
2022-08-25T16:36:29.147Z,96.80
2022-08-25T16:38:57.588Z,97.10
2022-08-25T16:41:27.146Z,97.30
2022-08-25T16:43:54.427Z,97.30
2022-08-25T16:46:21.751Z,97.30
2022-08-25T16:48:50.741Z,97.20
2022-08-25T16:51:22.657Z,97.20
2022-08-25T16:54:10.992Z,97.40
2022-08-25T16:56:39.016Z,97.40
2022-08-25T16:59:07.355Z,97.40
2022-08-25T17:01:35.338Z,97.30
2022-08-25T17:04:03.606Z,97.70
2022-08-25T17:06:35.314Z,97.50
2022-08-25T17:09:02.315Z,97.40
2022-08-25T17:11:35.028Z,97.70
2022-08-25T17:14:04.507Z,97.80
2022-08-25T17:16:38.267Z,97.60
2022-08-25T17:19:11.823Z,97.80
2022-08-25T17:21:45.114Z,97.90
2022-08-25T17:24:13.853Z,97.90
2022-08-25T17:26:42.215Z,98.10
2022-08-25T17:29:09.890Z,97.80
2022-08-25T17:31:39.715Z,98.10
2022-08-25T17:34:10.386Z,98.10
2022-08-25T17:36:38.223Z,98.20
2022-08-25T17:39:08.691Z,98.30
2022-08-25T17:41:37.636Z,98.20
2022-08-25T17:44:05.620Z,98.20
2022-08-25T17:46:32.697Z,98.30
2022-08-25T17:48:59.632Z,98.40
2022-08-25T17:51:26.415Z,98.80
2022-08-25T17:53:56.439Z,98.80
2022-08-25T17:56:25.808Z,98.50
2022-08-25T17:58:55.644Z,98.60
2022-08-25T18:01:28.486Z,98.70
2022-08-25T18:03:57.313Z,98.80
2022-08-25T18:06:25.003Z,98.70
2022-08-25T18:08:56.315Z,98.80
2022-08-25T18:11:26.016Z,98.80
2022-08-25T18:13:54.217Z,98.90
2022-08-25T18:16:22.198Z,99.10
2022-08-25T18:18:48.989Z,99.20
2022-08-25T18:21:17.913Z,99.10
2022-08-25T18:23:45.735Z,99.20
2022-08-25T18:26:14.609Z,99.30
2022-08-25T18:28:43.833Z,99.60
2022-08-25T18:31:13.161Z,99.50
2022-08-25T18:33:44.407Z,99.70
2022-08-25T18:36:12.938Z,99.50
2022-08-25T18:38:59.501Z,99.60
2022-08-25T18:41:27.444Z,99.60
2022-08-25T18:43:54.588Z,99.70
2022-08-25T18:46:22.784Z,99.90
2022-08-25T18:48:52.809Z,99.90
2022-08-25T18:51:22.941Z,99.90
2022-08-25T18:53:51.391Z,99.90
2022-08-25T18:56:22.770Z,99.90
2022-08-25T18:58:49.967Z,99.90
2022-08-25T19:01:19.761Z,99.90
2022-08-25T19:03:46.778Z,99.90
2022-08-25T19:06:14.918Z,99.90
2022-08-25T19:08:42.255Z,99.90
2022-08-25T19:11:10.016Z,99.90
2022-08-25T19:13:38.157Z,99.90
2022-08-25T19:16:17.518Z,99.90
2022-08-25T19:18:47.145Z,99.90
2022-08-25T19:21:14.223Z,99.90
2022-08-25T19:23:41.109Z,99.90
2022-08-25T19:26:13.961Z,99.90
2022-08-25T19:28:45.911Z,99.90
2022-08-25T19:31:23.330Z,99.90
2022-08-25T19:33:52.540Z,99.90
2022-08-25T19:36:24.230Z,99.90
2022-08-25T19:38:58.434Z,99.90
2022-08-25T19:41:27.620Z,99.90
2022-08-25T19:43:56.283Z,99.90
2022-08-25T19:46:33.053Z,99.90
2022-08-25T19:49:09.231Z,99.90
2022-08-25T19:51:44.080Z,99.90
2022-08-25T19:54:13.753Z,99.90
2022-08-25T19:56:43.676Z,99.90
2022-08-25T19:59:22.964Z,99.90
2022-08-25T20:01:50.168Z,99.90
2022-08-25T20:04:17.112Z,99.90
2022-08-25T20:06:44.171Z,99.90
2022-08-25T20:09:29.342Z,99.90
2022-08-25T20:12:03.166Z,99.90
2022-08-25T20:14:30.172Z,99.90
2022-08-25T20:16:57.005Z,99.90
2022-08-25T20:19:23.885Z,99.90
2022-08-25T20:21:50.654Z,99.90
2022-08-25T20:24:36.264Z,99.90
2022-08-25T20:27:03.953Z,99.90
2022-08-25T20:29:31.732Z,99.90
2022-08-25T20:31:59.294Z,99.90
2022-08-25T20:34:28.919Z,99.90
2022-08-25T20:36:55.971Z,99.90
2022-08-25T20:39:22.978Z,99.90
2022-08-25T20:41:49.787Z,99.90
2022-08-25T20:44:17.875Z,99.90
2022-08-25T20:46:45.953Z,99.90
2022-08-25T20:49:13.631Z,99.90
2022-08-25T20:51:40.851Z,99.90
2022-08-25T20:54:11.937Z,99.90
2022-08-25T20:56:38.713Z,99.90
2022-08-25T20:59:05.455Z,99.90
2022-08-25T21:01:37.959Z,99.90
2022-08-25T21:04:15.105Z,99.90
2022-08-25T21:06:43.090Z,99.90
2022-08-25T21:09:16.094Z,99.90
2022-08-25T21:11:44.292Z,99.90
2022-08-25T21:14:13.626Z,99.90
2022-08-25T21:16:46.338Z,99.90
2022-08-25T21:19:26.582Z,99.90
2022-08-25T21:21:59.660Z,99.90
2022-08-25T21:24:28.091Z,99.90
2022-08-25T21:26:56.935Z,99.90
2022-08-25T21:29:25.933Z,99.90
2022-08-25T21:31:58.675Z,99.90
2022-08-25T21:34:28.235Z,99.90
2022-08-25T21:37:00.258Z,99.90
2022-08-25T21:39:29.490Z,99.90
2022-08-25T21:42:00.082Z,99.90
2022-08-25T21:44:27.864Z,99.90
2022-08-25T21:46:54.923Z,99.90
2022-08-25T21:49:23.225Z,99.90
2022-08-25T21:52:01.045Z,99.90
2022-08-25T21:54:29.573Z,99.90
2022-08-25T21:57:03.316Z,99.90
2022-08-25T21:59:36.367Z,99.90
2022-08-25T22:02:07.769Z,99.90
2022-08-25T22:04:38.307Z,99.90
2022-08-25T22:07:06.697Z,99.90
2022-08-25T22:09:33.912Z,99.90
2022-08-25T22:12:00.668Z,99.90
2022-08-25T22:14:29.465Z,99.90
2022-08-25T22:16:56.439Z,99.90
2022-08-25T22:19:24.688Z,99.90
2022-08-25T22:21:52.718Z,99.90
2022-08-25T22:24:20.185Z,99.90
2022-08-25T22:26:48.580Z,99.90
2022-08-25T22:29:24.854Z,99.90
2022-08-25T22:31:53.047Z,99.90
2022-08-25T22:34:20.029Z,99.90
2022-08-25T22:36:59.664Z,99.90
2022-08-25T22:39:27.546Z,99.90
2022-08-25T22:41:54.539Z,99.90
2022-08-25T22:44:23.116Z,99.90
2022-08-25T22:46:50.184Z,99.90
2022-08-25T22:49:17.304Z,99.90
2022-08-25T22:51:44.215Z,99.90
2022-08-25T22:54:15.004Z,99.90
2022-08-25T22:56:42.173Z,99.90
2022-08-25T22:59:11.843Z,99.90
2022-08-25T23:01:39.656Z,99.90
2022-08-25T23:04:07.248Z,99.90
2022-08-25T23:06:37.073Z,99.90
2022-08-25T23:09:06.911Z,99.90
2022-08-25T23:11:35.541Z,99.90
2022-08-25T23:14:09.989Z,99.90
2022-08-25T23:16:38.740Z,99.90
2022-08-25T23:19:05.834Z,99.90
2022-08-25T23:21:52.973Z,99.90
2022-08-25T23:24:29.565Z,99.90
2022-08-25T23:27:01.406Z,99.90
2022-08-25T23:29:29.681Z,99.90
2022-08-25T23:31:57.909Z,99.90
2022-08-25T23:34:25.680Z,99.90
2022-08-25T23:36:52.565Z,99.90
2022-08-25T23:39:21.696Z,99.90
2022-08-25T23:41:49.694Z,99.90
2022-08-25T23:44:17.086Z,99.90
2022-08-25T23:46:45.115Z,99.90
2022-08-25T23:49:12.757Z,99.90
2022-08-25T23:51:41.037Z,99.90
2022-08-25T23:54:11.629Z,99.90
2022-08-25T23:56:44.465Z,99.90
2022-08-25T23:59:18.168Z,99.90
